sensor_id;sensor_type;location;lat;lon;timestamp;P1;durP1;ratioP1;P2;durP2;ratioP2
9124;SDS011;4597;48.730;9.114;2022-11-18T00:00:49;0.93;;;0.60;;
9124;SDS011;4597;48.730;9.114;2022-11-18T00:03:15;0.80;;;0.57;;
9124;SDS011;4597;48.730;9.114;2022-11-18T00:05:41;0.70;;;0.70;;
9124;SDS011;4597;48.730;9.114;2022-11-18T00:08:06;0.50;;;0.50;;
9124;SDS011;4597;48.730;9.114;2022-11-18T00:10:32;2.33;;;0.80;;
9124;SDS011;4597;48.730;9.114;2022-11-18T00:13:00;0.60;;;0.60;;
9124;SDS011;4597;48.730;9.114;2022-11-18T00:15:44;0.40;;;0.40;;
9124;SDS011;4597;48.730;9.114;2022-11-18T00:18:10;0.53;;;0.53;;
9124;SDS011;4597;48.730;9.114;2022-11-18T00:20:35;0.60;;;0.60;;
9124;SDS011;4597;48.730;9.114;2022-11-18T00:23:01;0.83;;;0.60;;
9124;SDS011;4597;48.730;9.114;2022-11-18T00:25:26;1.13;;;0.80;;
9124;SDS011;4597;48.730;9.114;2022-11-18T00:27:52;1.00;;;0.60;;
9124;SDS011;4597;48.730;9.114;2022-11-18T00:30:18;1.23;;;0.67;;
9124;SDS011;4597;48.730;9.114;2022-11-18T00:32:44;0.63;;;0.63;;
9124;SDS011;4597;48.730;9.114;2022-11-18T00:35:09;1.80;;;0.80;;
9124;SDS011;4597;48.730;9.114;2022-11-18T00:37:35;0.70;;;0.70;;
9124;SDS011;4597;48.730;9.114;2022-11-18T00:40:00;2.00;;;0.70;;
9124;SDS011;4597;48.730;9.114;2022-11-18T00:42:26;0.63;;;0.63;;
9124;SDS011;4597;48.730;9.114;2022-11-18T00:45:10;1.33;;;0.70;;
9124;SDS011;4597;48.730;9.114;2022-11-18T00:47:36;0.70;;;0.70;;
9124;SDS011;4597;48.730;9.114;2022-11-18T00:50:01;1.07;;;0.73;;
9124;SDS011;4597;48.730;9.114;2022-11-18T00:52:27;0.50;;;0.50;;
9124;SDS011;4597;48.730;9.114;2022-11-18T00:54:52;0.97;;;0.60;;
9124;SDS011;4597;48.730;9.114;2022-11-18T00:57:18;1.13;;;0.80;;
9124;SDS011;4597;48.730;9.114;2022-11-18T00:59:43;1.50;;;0.70;;
9124;SDS011;4597;48.730;9.114;2022-11-18T01:02:09;1.23;;;0.73;;
9124;SDS011;4597;48.730;9.114;2022-11-18T01:04:34;2.13;;;0.80;;
9124;SDS011;4597;48.730;9.114;2022-11-18T01:07:00;0.60;;;0.60;;
9124;SDS011;4597;48.730;9.114;2022-11-18T01:09:25;1.07;;;0.70;;
9124;SDS011;4597;48.730;9.114;2022-11-18T01:11:51;0.82;;;0.70;;
9124;SDS011;4597;48.730;9.114;2022-11-18T01:14:45;1.37;;;0.63;;
9124;SDS011;4597;48.730;9.114;2022-11-18T01:17:11;0.60;;;0.60;;
9124;SDS011;4597;48.730;9.114;2022-11-18T01:19:36;0.60;;;0.60;;
9124;SDS011;4597;48.730;9.114;2022-11-18T01:22:02;0.70;;;0.63;;
9124;SDS011;4597;48.730;9.114;2022-11-18T01:24:29;0.70;;;0.70;;
9124;SDS011;4597;48.730;9.114;2022-11-18T01:26:55;1.47;;;0.80;;
9124;SDS011;4597;48.730;9.114;2022-11-18T01:29:21;0.80;;;0.80;;
9124;SDS011;4597;48.730;9.114;2022-11-18T01:31:46;0.70;;;0.70;;
9124;SDS011;4597;48.730;9.114;2022-11-18T01:34:12;0.90;;;0.60;;
9124;SDS011;4597;48.730;9.114;2022-11-18T01:36:37;1.30;;;1.20;;
9124;SDS011;4597;48.730;9.114;2022-11-18T01:39:03;0.90;;;0.87;;
9124;SDS011;4597;48.730;9.114;2022-11-18T01:41:29;1.57;;;0.70;;
9124;SDS011;4597;48.730;9.114;2022-11-18T01:43:56;1.37;;;0.83;;
9124;SDS011;4597;48.730;9.114;2022-11-18T01:46:24;1.37;;;0.97;;
9124;SDS011;4597;48.730;9.114;2022-11-18T01:48:53;1.53;;;0.80;;
9124;SDS011;4597;48.730;9.114;2022-11-18T01:51:24;0.83;;;0.80;;
9124;SDS011;4597;48.730;9.114;2022-11-18T01:53:54;0.97;;;0.87;;
9124;SDS011;4597;48.730;9.114;2022-11-18T01:56:25;2.07;;;0.70;;
9124;SDS011;4597;48.730;9.114;2022-11-18T01:59:04;0.67;;;0.67;;
9124;SDS011;4597;48.730;9.114;2022-11-18T02:01:32;1.47;;;0.83;;
9124;SDS011;4597;48.730;9.114;2022-11-18T02:03:58;1.10;;;0.60;;
9124;SDS011;4597;48.730;9.114;2022-11-18T02:06:23;0.73;;;0.60;;
9124;SDS011;4597;48.730;9.114;2022-11-18T02:08:49;1.00;;;0.67;;
9124;SDS011;4597;48.730;9.114;2022-11-18T02:11:16;1.37;;;0.60;;
9124;SDS011;4597;48.730;9.114;2022-11-18T02:14:04;1.77;;;0.77;;
9124;SDS011;4597;48.730;9.114;2022-11-18T02:16:44;1.23;;;0.60;;
9124;SDS011;4597;48.730;9.114;2022-11-18T02:19:31;0.87;;;0.63;;
9124;SDS011;4597;48.730;9.114;2022-11-18T02:30:43;0.73;;;0.73;;
9124;SDS011;4597;48.730;9.114;2022-11-18T02:33:16;1.00;;;0.90;;
9124;SDS011;4597;48.730;9.114;2022-11-18T02:35:52;1.97;;;1.00;;
9124;SDS011;4597;48.730;9.114;2022-11-18T02:38:33;0.70;;;0.70;;
9124;SDS011;4597;48.730;9.114;2022-11-18T02:41:06;1.17;;;0.60;;
9124;SDS011;4597;48.730;9.114;2022-11-18T02:43:35;0.60;;;0.60;;
9124;SDS011;4597;48.730;9.114;2022-11-18T02:46:08;1.60;;;0.73;;
9124;SDS011;4597;48.730;9.114;2022-11-18T02:48:37;0.77;;;0.77;;
9124;SDS011;4597;48.730;9.114;2022-11-18T02:51:08;0.40;;;0.40;;
9124;SDS011;4597;48.730;9.114;2022-11-18T02:53:37;1.90;;;0.70;;
9124;SDS011;4597;48.730;9.114;2022-11-18T02:56:04;0.47;;;0.47;;
9124;SDS011;4597;48.730;9.114;2022-11-18T02:58:31;1.83;;;0.67;;
9124;SDS011;4597;48.730;9.114;2022-11-18T03:00:57;0.90;;;0.90;;
9124;SDS011;4597;48.730;9.114;2022-11-18T03:03:28;0.87;;;0.50;;
9124;SDS011;4597;48.730;9.114;2022-11-18T03:06:01;0.50;;;0.50;;
9124;SDS011;4597;48.730;9.114;2022-11-18T03:08:34;0.93;;;0.83;;
9124;SDS011;4597;48.730;9.114;2022-11-18T03:11:15;0.90;;;0.90;;
9124;SDS011;4597;48.730;9.114;2022-11-18T03:16:32;1.23;;;0.70;;
9124;SDS011;4597;48.730;9.114;2022-11-18T03:19:08;1.33;;;0.73;;
9124;SDS011;4597;48.730;9.114;2022-11-18T03:21:43;0.50;;;0.50;;
9124;SDS011;4597;48.730;9.114;2022-11-18T03:24:16;1.20;;;0.60;;
9124;SDS011;4597;48.730;9.114;2022-11-18T03:26:47;0.73;;;0.73;;
9124;SDS011;4597;48.730;9.114;2022-11-18T03:29:20;0.33;;;0.33;;
9124;SDS011;4597;48.730;9.114;2022-11-18T03:31:55;1.17;;;0.47;;
9124;SDS011;4597;48.730;9.114;2022-11-18T03:37:09;0.50;;;0.43;;
9124;SDS011;4597;48.730;9.114;2022-11-18T03:39:39;1.67;;;0.57;;
9124;SDS011;4597;48.730;9.114;2022-11-18T03:42:12;0.77;;;0.50;;
9124;SDS011;4597;48.730;9.114;2022-11-18T03:44:44;2.17;;;0.60;;
9124;SDS011;4597;48.730;9.114;2022-11-18T03:47:21;0.40;;;0.40;;
9124;SDS011;4597;48.730;9.114;2022-11-18T03:49:54;1.30;;;0.53;;
9124;SDS011;4597;48.730;9.114;2022-11-18T03:52:27;1.33;;;0.40;;
9124;SDS011;4597;48.730;9.114;2022-11-18T03:54:56;0.57;;;0.40;;
9124;SDS011;4597;48.730;9.114;2022-11-18T03:57:31;0.47;;;0.47;;
9124;SDS011;4597;48.730;9.114;2022-11-18T04:00:07;0.93;;;0.40;;
9124;SDS011;4597;48.730;9.114;2022-11-18T04:02:35;0.40;;;0.40;;
9124;SDS011;4597;48.730;9.114;2022-11-18T04:05:02;0.80;;;0.40;;
9124;SDS011;4597;48.730;9.114;2022-11-18T04:07:36;0.50;;;0.40;;
9124;SDS011;4597;48.730;9.114;2022-11-18T04:11:23;0.50;;;0.43;;
9124;SDS011;4597;48.730;9.114;2022-11-18T04:13:22;0.50;;;0.50;;
9124;SDS011;4597;48.730;9.114;2022-11-18T04:15:52;2.30;;;0.70;;
9124;SDS011;4597;48.730;9.114;2022-11-18T04:18:18;0.70;;;0.70;;
9124;SDS011;4597;48.730;9.114;2022-11-18T04:20:44;0.33;;;0.33;;
9124;SDS011;4597;48.730;9.114;2022-11-18T04:23:10;0.80;;;0.40;;
9124;SDS011;4597;48.730;9.114;2022-11-18T04:25:36;0.80;;;0.50;;
9124;SDS011;4597;48.730;9.114;2022-11-18T04:28:02;0.93;;;0.70;;
9124;SDS011;4597;48.730;9.114;2022-11-18T04:30:28;0.80;;;0.30;;
9124;SDS011;4597;48.730;9.114;2022-11-18T04:32:53;0.33;;;0.30;;
9124;SDS011;4597;48.730;9.114;2022-11-18T04:35:19;0.47;;;0.37;;
9124;SDS011;4597;48.730;9.114;2022-11-18T04:37:44;0.47;;;0.47;;
9124;SDS011;4597;48.730;9.114;2022-11-18T04:40:10;0.43;;;0.43;;
9124;SDS011;4597;48.730;9.114;2022-11-18T04:42:36;0.40;;;0.40;;
9124;SDS011;4597;48.730;9.114;2022-11-18T04:45:01;0.50;;;0.50;;
9124;SDS011;4597;48.730;9.114;2022-11-18T04:47:28;1.10;;;0.50;;
9124;SDS011;4597;48.730;9.114;2022-11-18T04:49:53;0.70;;;0.70;;
9124;SDS011;4597;48.730;9.114;2022-11-18T04:52:19;0.73;;;0.40;;
9124;SDS011;4597;48.730;9.114;2022-11-18T04:54:44;0.57;;;0.40;;
9124;SDS011;4597;48.730;9.114;2022-11-18T04:57:10;0.40;;;0.40;;
9124;SDS011;4597;48.730;9.114;2022-11-18T04:59:36;1.43;;;0.50;;
9124;SDS011;4597;48.730;9.114;2022-11-18T05:02:02;0.40;;;0.40;;
9124;SDS011;4597;48.730;9.114;2022-11-18T05:04:28;0.70;;;0.67;;
9124;SDS011;4597;48.730;9.114;2022-11-18T05:06:55;1.30;;;0.43;;
9124;SDS011;4597;48.730;9.114;2022-11-18T05:09:21;0.50;;;0.50;;
9124;SDS011;4597;48.730;9.114;2022-11-18T05:11:47;0.40;;;0.40;;
9124;SDS011;4597;48.730;9.114;2022-11-18T05:14:31;3.03;;;0.50;;
9124;SDS011;4597;48.730;9.114;2022-11-18T05:16:58;0.50;;;0.40;;
9124;SDS011;4597;48.730;9.114;2022-11-18T05:19:27;1.00;;;0.60;;
9124;SDS011;4597;48.730;9.114;2022-11-18T05:21:52;2.30;;;0.87;;
9124;SDS011;4597;48.730;9.114;2022-11-18T05:24:18;0.50;;;0.50;;
9124;SDS011;4597;48.730;9.114;2022-11-18T05:26:44;0.40;;;0.40;;
9124;SDS011;4597;48.730;9.114;2022-11-18T05:29:10;0.63;;;0.60;;
9124;SDS011;4597;48.730;9.114;2022-11-18T05:31:36;0.43;;;0.40;;
9124;SDS011;4597;48.730;9.114;2022-11-18T05:34:02;0.40;;;0.40;;
9124;SDS011;4597;48.730;9.114;2022-11-18T05:36:27;0.57;;;0.53;;
9124;SDS011;4597;48.730;9.114;2022-11-18T05:38:53;0.60;;;0.60;;
9124;SDS011;4597;48.730;9.114;2022-11-18T05:41:19;0.50;;;0.50;;
9124;SDS011;4597;48.730;9.114;2022-11-18T05:44:03;0.73;;;0.70;;
9124;SDS011;4597;48.730;9.114;2022-11-18T05:46:29;1.27;;;0.70;;
9124;SDS011;4597;48.730;9.114;2022-11-18T05:48:55;0.50;;;0.50;;
9124;SDS011;4597;48.730;9.114;2022-11-18T05:51:21;0.73;;;0.67;;
9124;SDS011;4597;48.730;9.114;2022-11-18T05:53:47;0.50;;;0.50;;
9124;SDS011;4597;48.730;9.114;2022-11-18T05:56:17;1.60;;;0.47;;
9124;SDS011;4597;48.730;9.114;2022-11-18T05:58:49;0.30;;;0.30;;
9124;SDS011;4597;48.730;9.114;2022-11-18T06:01:16;1.50;;;0.47;;
9124;SDS011;4597;48.730;9.114;2022-11-18T06:03:45;0.43;;;0.43;;
9124;SDS011;4597;48.730;9.114;2022-11-18T06:06:11;0.40;;;0.40;;
9124;SDS011;4597;48.730;9.114;2022-11-18T06:08:41;0.50;;;0.50;;
9124;SDS011;4597;48.730;9.114;2022-11-18T06:11:12;0.33;;;0.33;;
9124;SDS011;4597;48.730;9.114;2022-11-18T06:13:42;0.40;;;0.40;;
9124;SDS011;4597;48.730;9.114;2022-11-18T06:16:34;0.80;;;0.47;;
9124;SDS011;4597;48.730;9.114;2022-11-18T06:19:03;0.70;;;0.70;;
9124;SDS011;4597;48.730;9.114;2022-11-18T06:21:28;0.50;;;0.50;;
9124;SDS011;4597;48.730;9.114;2022-11-18T06:23:54;0.50;;;0.50;;
9124;SDS011;4597;48.730;9.114;2022-11-18T06:26:20;0.67;;;0.60;;
9124;SDS011;4597;48.730;9.114;2022-11-18T06:28:46;0.70;;;0.70;;
9124;SDS011;4597;48.730;9.114;2022-11-18T06:31:12;0.57;;;0.57;;
9124;SDS011;4597;48.730;9.114;2022-11-18T06:33:40;0.37;;;0.37;;
9124;SDS011;4597;48.730;9.114;2022-11-18T06:36:06;0.60;;;0.60;;
9124;SDS011;4597;48.730;9.114;2022-11-18T06:38:32;0.63;;;0.63;;
9124;SDS011;4597;48.730;9.114;2022-11-18T06:40:58;1.13;;;0.70;;
9124;SDS011;4597;48.730;9.114;2022-11-18T06:43:25;0.50;;;0.50;;
9124;SDS011;4597;48.730;9.114;2022-11-18T06:46:04;0.50;;;0.50;;
9124;SDS011;4597;48.730;9.114;2022-11-18T06:48:49;0.50;;;0.50;;
9124;SDS011;4597;48.730;9.114;2022-11-18T06:51:16;0.60;;;0.40;;
9124;SDS011;4597;48.730;9.114;2022-11-18T06:53:41;0.60;;;0.60;;
9124;SDS011;4597;48.730;9.114;2022-11-18T06:56:08;0.60;;;0.60;;
9124;SDS011;4597;48.730;9.114;2022-11-18T06:58:36;0.80;;;0.80;;
9124;SDS011;4597;48.730;9.114;2022-11-18T07:01:36;0.93;;;0.60;;
9124;SDS011;4597;48.730;9.114;2022-11-18T07:03:56;0.77;;;0.77;;
9124;SDS011;4597;48.730;9.114;2022-11-18T07:06:23;1.10;;;1.10;;
9124;SDS011;4597;48.730;9.114;2022-11-18T07:08:50;1.93;;;0.93;;
9124;SDS011;4597;48.730;9.114;2022-11-18T07:11:18;0.80;;;0.80;;
9124;SDS011;4597;48.730;9.114;2022-11-18T07:13:45;0.50;;;0.50;;
9124;SDS011;4597;48.730;9.114;2022-11-18T07:16:12;0.80;;;0.80;;
9124;SDS011;4597;48.730;9.114;2022-11-18T07:18:40;0.93;;;0.87;;
9124;SDS011;4597;48.730;9.114;2022-11-18T07:21:07;1.00;;;0.90;;
9124;SDS011;4597;48.730;9.114;2022-11-18T07:23:34;0.87;;;0.87;;
9124;SDS011;4597;48.730;9.114;2022-11-18T07:26:00;2.00;;;0.90;;
9124;SDS011;4597;48.730;9.114;2022-11-18T07:28:26;2.50;;;0.90;;
9124;SDS011;4597;48.730;9.114;2022-11-18T07:31:02;0.80;;;0.80;;
9124;SDS011;4597;48.730;9.114;2022-11-18T07:33:29;1.20;;;1.20;;
9124;SDS011;4597;48.730;9.114;2022-11-18T07:36:00;1.13;;;0.90;;
9124;SDS011;4597;48.730;9.114;2022-11-18T07:38:30;1.10;;;1.00;;
9124;SDS011;4597;48.730;9.114;2022-11-18T07:41:01;1.50;;;1.20;;
9124;SDS011;4597;48.730;9.114;2022-11-18T07:43:28;0.90;;;0.90;;
9124;SDS011;4597;48.730;9.114;2022-11-18T07:45:53;1.10;;;0.93;;
9124;SDS011;4597;48.730;9.114;2022-11-18T07:48:19;1.40;;;1.30;;
9124;SDS011;4597;48.730;9.114;2022-11-18T07:50:44;0.90;;;0.90;;
9124;SDS011;4597;48.730;9.114;2022-11-18T07:53:10;2.03;;;0.97;;
9124;SDS011;4597;48.730;9.114;2022-11-18T07:55:35;2.53;;;1.00;;
9124;SDS011;4597;48.730;9.114;2022-11-18T07:58:01;1.43;;;0.93;;
9124;SDS011;4597;48.730;9.114;2022-11-18T08:00:27;1.67;;;0.77;;
9124;SDS011;4597;48.730;9.114;2022-11-18T08:02:52;2.33;;;1.00;;
9124;SDS011;4597;48.730;9.114;2022-11-18T08:05:18;1.20;;;1.00;;
9124;SDS011;4597;48.730;9.114;2022-11-18T08:07:43;4.93;;;0.90;;
9124;SDS011;4597;48.730;9.114;2022-11-18T08:10:09;2.00;;;0.80;;
9124;SDS011;4597;48.730;9.114;2022-11-18T08:12:34;1.53;;;0.60;;
9124;SDS011;4597;48.730;9.114;2022-11-18T08:15:00;2.37;;;0.80;;
9124;SDS011;4597;48.730;9.114;2022-11-18T08:17:25;1.93;;;1.00;;
9124;SDS011;4597;48.730;9.114;2022-11-18T08:19:51;2.43;;;0.87;;
9124;SDS011;4597;48.730;9.114;2022-11-18T08:22:16;0.80;;;0.80;;
9124;SDS011;4597;48.730;9.114;2022-11-18T08:24:44;1.93;;;1.10;;
9124;SDS011;4597;48.730;9.114;2022-11-18T08:27:11;0.87;;;0.63;;
9124;SDS011;4597;48.730;9.114;2022-11-18T08:29:37;1.00;;;1.00;;
9124;SDS011;4597;48.730;9.114;2022-11-18T08:32:02;0.63;;;0.63;;
9124;SDS011;4597;48.730;9.114;2022-11-18T08:34:29;1.00;;;0.80;;
9124;SDS011;4597;48.730;9.114;2022-11-18T08:36:54;0.97;;;0.80;;
9124;SDS011;4597;48.730;9.114;2022-11-18T08:39:20;0.60;;;0.60;;
9124;SDS011;4597;48.730;9.114;2022-11-18T08:41:45;0.93;;;0.90;;
9124;SDS011;4597;48.730;9.114;2022-11-18T08:44:12;0.73;;;0.70;;
9124;SDS011;4597;48.730;9.114;2022-11-18T08:46:39;1.23;;;0.70;;
9124;SDS011;4597;48.730;9.114;2022-11-18T08:49:06;0.60;;;0.60;;
9124;SDS011;4597;48.730;9.114;2022-11-18T08:51:31;0.57;;;0.57;;
9124;SDS011;4597;48.730;9.114;2022-11-18T08:53:57;0.83;;;0.80;;
9124;SDS011;4597;48.730;9.114;2022-11-18T08:56:22;0.83;;;0.67;;
9124;SDS011;4597;48.730;9.114;2022-11-18T08:58:49;1.53;;;1.20;;
9124;SDS011;4597;48.730;9.114;2022-11-18T09:01:15;2.63;;;1.40;;
9124;SDS011;4597;48.730;9.114;2022-11-18T09:03:40;1.07;;;0.80;;
9124;SDS011;4597;48.730;9.114;2022-11-18T09:06:16;1.50;;;0.90;;
9124;SDS011;4597;48.730;9.114;2022-11-18T09:08:43;3.33;;;1.07;;
9124;SDS011;4597;48.730;9.114;2022-11-18T09:11:10;2.53;;;1.30;;
9124;SDS011;4597;48.730;9.114;2022-11-18T09:13:39;2.93;;;1.10;;
9124;SDS011;4597;48.730;9.114;2022-11-18T09:16:05;3.50;;;0.83;;
9124;SDS011;4597;48.730;9.114;2022-11-18T09:18:31;2.00;;;0.90;;
9124;SDS011;4597;48.730;9.114;2022-11-18T09:21:01;1.30;;;1.00;;
9124;SDS011;4597;48.730;9.114;2022-11-18T09:23:29;2.20;;;0.90;;
9124;SDS011;4597;48.730;9.114;2022-11-18T09:26:00;2.03;;;1.83;;
9124;SDS011;4597;48.730;9.114;2022-11-18T09:28:30;2.10;;;1.73;;
9124;SDS011;4597;48.730;9.114;2022-11-18T09:30:56;1.40;;;1.23;;
9124;SDS011;4597;48.730;9.114;2022-11-18T09:33:21;1.23;;;1.10;;
9124;SDS011;4597;48.730;9.114;2022-11-18T09:35:47;3.87;;;2.23;;
9124;SDS011;4597;48.730;9.114;2022-11-18T09:38:13;1.13;;;0.73;;
9124;SDS011;4597;48.730;9.114;2022-11-18T09:40:44;1.80;;;1.70;;
9124;SDS011;4597;48.730;9.114;2022-11-18T09:46:03;4.30;;;1.57;;
9124;SDS011;4597;48.730;9.114;2022-11-18T09:48:45;1.90;;;1.47;;
9124;SDS011;4597;48.730;9.114;2022-11-18T09:51:29;2.00;;;1.20;;
9124;SDS011;4597;48.730;9.114;2022-11-18T09:54:00;1.50;;;1.40;;
9124;SDS011;4597;48.730;9.114;2022-11-18T09:56:26;1.50;;;1.40;;
9124;SDS011;4597;48.730;9.114;2022-11-18T09:58:52;3.37;;;1.70;;
9124;SDS011;4597;48.730;9.114;2022-11-18T10:01:18;2.20;;;1.40;;
9124;SDS011;4597;48.730;9.114;2022-11-18T10:03:45;5.67;;;1.53;;
9124;SDS011;4597;48.730;9.114;2022-11-18T10:06:23;2.50;;;1.63;;
9124;SDS011;4597;48.730;9.114;2022-11-18T10:11:39;2.10;;;1.90;;
9124;SDS011;4597;48.730;9.114;2022-11-18T10:17:03;1.50;;;1.40;;
9124;SDS011;4597;48.730;9.114;2022-11-18T10:25:09;2.77;;;1.63;;
9124;SDS011;4597;48.730;9.114;2022-11-18T10:27:41;2.13;;;1.50;;
9124;SDS011;4597;48.730;9.114;2022-11-18T10:30:11;3.00;;;1.90;;
9124;SDS011;4597;48.730;9.114;2022-11-18T10:32:56;2.27;;;2.10;;
9124;SDS011;4597;48.730;9.114;2022-11-18T10:35:40;2.50;;;1.47;;
9124;SDS011;4597;48.730;9.114;2022-11-18T10:38:19;3.60;;;1.60;;
9124;SDS011;4597;48.730;9.114;2022-11-18T10:46:33;2.10;;;1.90;;
9124;SDS011;4597;48.730;9.114;2022-11-18T10:51:39;1.87;;;1.53;;
9124;SDS011;4597;48.730;9.114;2022-11-18T10:54:22;3.33;;;1.90;;
9124;SDS011;4597;48.730;9.114;2022-11-18T10:59:48;2.07;;;1.87;;
9124;SDS011;4597;48.730;9.114;2022-11-18T11:04:43;2.40;;;2.20;;
9124;SDS011;4597;48.730;9.114;2022-11-18T11:07:14;1.70;;;1.60;;
9124;SDS011;4597;48.730;9.114;2022-11-18T11:12:32;3.30;;;1.50;;
9124;SDS011;4597;48.730;9.114;2022-11-18T11:15:04;1.27;;;1.17;;
9124;SDS011;4597;48.730;9.114;2022-11-18T11:17:35;1.40;;;1.30;;
9124;SDS011;4597;48.730;9.114;2022-11-18T11:20:06;1.47;;;1.37;;
9124;SDS011;4597;48.730;9.114;2022-11-18T11:22:47;1.80;;;1.70;;
9124;SDS011;4597;48.730;9.114;2022-11-18T11:25:36;1.07;;;0.90;;
9124;SDS011;4597;48.730;9.114;2022-11-18T11:31:13;1.53;;;1.40;;
9124;SDS011;4597;48.730;9.114;2022-11-18T11:33:46;1.80;;;1.33;;
9124;SDS011;4597;48.730;9.114;2022-11-18T11:39:00;2.87;;;1.47;;
9124;SDS011;4597;48.730;9.114;2022-11-18T11:41:53;1.47;;;1.37;;
9124;SDS011;4597;48.730;9.114;2022-11-18T11:44:46;2.47;;;1.30;;
9124;SDS011;4597;48.730;9.114;2022-11-18T12:01:54;2.40;;;1.43;;
9124;SDS011;4597;48.730;9.114;2022-11-18T12:04:38;3.20;;;1.57;;
9124;SDS011;4597;48.730;9.114;2022-11-18T12:07:11;1.67;;;1.27;;
9124;SDS011;4597;48.730;9.114;2022-11-18T12:09:59;1.30;;;1.20;;
9124;SDS011;4597;48.730;9.114;2022-11-18T12:12:32;1.80;;;1.60;;
9124;SDS011;4597;48.730;9.114;2022-11-18T12:15:16;2.30;;;1.27;;
9124;SDS011;4597;48.730;9.114;2022-11-18T12:20:49;1.30;;;1.20;;
9124;SDS011;4597;48.730;9.114;2022-11-18T12:23:17;1.73;;;1.30;;
9124;SDS011;4597;48.730;9.114;2022-11-18T12:28:28;1.63;;;1.20;;
9124;SDS011;4597;48.730;9.114;2022-11-18T12:33:42;1.60;;;1.43;;
9124;SDS011;4597;48.730;9.114;2022-11-18T12:36:28;1.43;;;1.37;;
9124;SDS011;4597;48.730;9.114;2022-11-18T12:38:56;2.57;;;1.57;;
9124;SDS011;4597;48.730;9.114;2022-11-18T12:41:57;1.87;;;1.40;;
9124;SDS011;4597;48.730;9.114;2022-11-18T12:44:34;2.83;;;1.43;;
9124;SDS011;4597;48.730;9.114;2022-11-18T12:47:08;3.40;;;1.50;;
9124;SDS011;4597;48.730;9.114;2022-11-18T12:52:01;1.57;;;1.23;;
9124;SDS011;4597;48.730;9.114;2022-11-18T12:54:29;1.40;;;1.30;;
9124;SDS011;4597;48.730;9.114;2022-11-18T12:59:39;1.50;;;1.40;;
9124;SDS011;4597;48.730;9.114;2022-11-18T13:02:26;2.90;;;1.10;;
9124;SDS011;4597;48.730;9.114;2022-11-18T13:05:08;2.00;;;1.10;;
9124;SDS011;4597;48.730;9.114;2022-11-18T13:07:50;1.70;;;1.13;;
9124;SDS011;4597;48.730;9.114;2022-11-18T13:10:43;2.90;;;1.37;;
9124;SDS011;4597;48.730;9.114;2022-11-18T13:13:27;1.83;;;1.17;;
9124;SDS011;4597;48.730;9.114;2022-11-18T13:15:53;1.60;;;1.50;;
9124;SDS011;4597;48.730;9.114;2022-11-18T13:18:52;1.47;;;1.27;;
9124;SDS011;4597;48.730;9.114;2022-11-18T13:21:25;1.83;;;1.20;;
9124;SDS011;4597;48.730;9.114;2022-11-18T13:24:15;2.37;;;1.77;;
9124;SDS011;4597;48.730;9.114;2022-11-18T13:26:43;6.80;;;1.73;;
9124;SDS011;4597;48.730;9.114;2022-11-18T13:32:21;1.50;;;1.40;;
9124;SDS011;4597;48.730;9.114;2022-11-18T13:34:53;1.20;;;1.07;;
9124;SDS011;4597;48.730;9.114;2022-11-18T13:37:22;2.63;;;1.23;;
9124;SDS011;4597;48.730;9.114;2022-11-18T13:39:52;1.30;;;1.20;;
9124;SDS011;4597;48.730;9.114;2022-11-18T13:42:19;3.23;;;1.20;;
9124;SDS011;4597;48.730;9.114;2022-11-18T13:45:11;1.93;;;1.00;;
9124;SDS011;4597;48.730;9.114;2022-11-18T13:47:39;1.47;;;1.00;;
9124;SDS011;4597;48.730;9.114;2022-11-18T13:55:27;2.07;;;1.10;;
9124;SDS011;4597;48.730;9.114;2022-11-18T13:58:06;2.73;;;1.27;;
9124;SDS011;4597;48.730;9.114;2022-11-18T14:00:42;1.30;;;1.20;;
9124;SDS011;4597;48.730;9.114;2022-11-18T14:03:20;1.77;;;1.30;;
9124;SDS011;4597;48.730;9.114;2022-11-18T14:05:54;2.60;;;1.10;;
9124;SDS011;4597;48.730;9.114;2022-11-18T14:08:31;4.07;;;1.47;;
9124;SDS011;4597;48.730;9.114;2022-11-18T14:10:58;2.40;;;1.40;;
9124;SDS011;4597;48.730;9.114;2022-11-18T14:15:53;2.00;;;1.20;;
9124;SDS011;4597;48.730;9.114;2022-11-18T14:18:26;1.60;;;1.50;;
9124;SDS011;4597;48.730;9.114;2022-11-18T14:20:55;3.47;;;1.47;;
9124;SDS011;4597;48.730;9.114;2022-11-18T14:23:29;2.87;;;1.70;;
9124;SDS011;4597;48.730;9.114;2022-11-18T14:25:59;1.87;;;1.30;;
9124;SDS011;4597;48.730;9.114;2022-11-18T14:28:29;2.67;;;1.70;;
9124;SDS011;4597;48.730;9.114;2022-11-18T14:34:04;3.40;;;1.90;;
9124;SDS011;4597;48.730;9.114;2022-11-18T14:36:39;2.53;;;2.30;;
9124;SDS011;4597;48.730;9.114;2022-11-18T14:41:53;1.43;;;1.30;;
9124;SDS011;4597;48.730;9.114;2022-11-18T14:44:21;2.10;;;1.37;;
9124;SDS011;4597;48.730;9.114;2022-11-18T14:46:49;1.20;;;1.20;;
9124;SDS011;4597;48.730;9.114;2022-11-18T14:49:22;4.60;;;2.00;;
9124;SDS011;4597;48.730;9.114;2022-11-18T14:51:49;4.43;;;3.33;;
9124;SDS011;4597;48.730;9.114;2022-11-18T14:54:16;1.87;;;1.77;;
9124;SDS011;4597;48.730;9.114;2022-11-18T14:56:43;1.80;;;1.70;;
9124;SDS011;4597;48.730;9.114;2022-11-18T14:59:11;1.60;;;1.50;;
9124;SDS011;4597;48.730;9.114;2022-11-18T15:01:38;3.17;;;1.67;;
9124;SDS011;4597;48.730;9.114;2022-11-18T15:04:04;5.87;;;2.37;;
9124;SDS011;4597;48.730;9.114;2022-11-18T15:06:31;5.67;;;2.00;;
9124;SDS011;4597;48.730;9.114;2022-11-18T15:08:57;3.50;;;1.87;;
9124;SDS011;4597;48.730;9.114;2022-11-18T15:11:23;3.33;;;2.00;;
9124;SDS011;4597;48.730;9.114;2022-11-18T15:13:48;3.17;;;2.10;;
9124;SDS011;4597;48.730;9.114;2022-11-18T15:16:15;2.23;;;1.57;;
9124;SDS011;4597;48.730;9.114;2022-11-18T15:18:46;8.00;;;4.67;;
9124;SDS011;4597;48.730;9.114;2022-11-18T15:21:14;2.60;;;2.40;;
9124;SDS011;4597;48.730;9.114;2022-11-18T15:23:40;3.60;;;2.83;;
9124;SDS011;4597;48.730;9.114;2022-11-18T15:26:22;1.50;;;1.40;;
9124;SDS011;4597;48.730;9.114;2022-11-18T15:28:50;3.27;;;1.50;;
9124;SDS011;4597;48.730;9.114;2022-11-18T15:31:17;2.77;;;1.70;;
9124;SDS011;4597;48.730;9.114;2022-11-18T15:33:44;4.20;;;2.23;;
9124;SDS011;4597;48.730;9.114;2022-11-18T15:36:13;2.87;;;1.70;;
9124;SDS011;4597;48.730;9.114;2022-11-18T15:38:40;2.90;;;1.70;;
9124;SDS011;4597;48.730;9.114;2022-11-18T15:41:11;2.97;;;2.33;;
9124;SDS011;4597;48.730;9.114;2022-11-18T15:43:45;1.80;;;1.70;;
9124;SDS011;4597;48.730;9.114;2022-11-18T15:46:11;2.97;;;1.60;;
9124;SDS011;4597;48.730;9.114;2022-11-18T15:48:37;2.53;;;1.97;;
9124;SDS011;4597;48.730;9.114;2022-11-18T15:51:03;2.80;;;1.97;;
9124;SDS011;4597;48.730;9.114;2022-11-18T15:53:29;2.37;;;1.70;;
9124;SDS011;4597;48.730;9.114;2022-11-18T15:58:40;1.97;;;1.77;;
9124;SDS011;4597;48.730;9.114;2022-11-18T16:01:05;2.20;;;1.90;;
9124;SDS011;4597;48.730;9.114;2022-11-18T16:03:32;4.20;;;2.70;;
9124;SDS011;4597;48.730;9.114;2022-11-18T16:05:58;2.33;;;2.13;;
9124;SDS011;4597;48.730;9.114;2022-11-18T16:08:24;2.83;;;2.33;;
9124;SDS011;4597;48.730;9.114;2022-11-18T16:10:58;4.13;;;2.57;;
9124;SDS011;4597;48.730;9.114;2022-11-18T16:13:42;3.97;;;2.53;;
9124;SDS011;4597;48.730;9.114;2022-11-18T16:16:21;6.03;;;2.73;;
9124;SDS011;4597;48.730;9.114;2022-11-18T16:18:52;7.73;;;3.67;;
9124;SDS011;4597;48.730;9.114;2022-11-18T16:21:21;7.77;;;4.80;;
9124;SDS011;4597;48.730;9.114;2022-11-18T16:23:48;7.33;;;4.03;;
9124;SDS011;4597;48.730;9.114;2022-11-18T16:26:14;6.57;;;3.83;;
9124;SDS011;4597;48.730;9.114;2022-11-18T16:28:39;4.70;;;3.10;;
9124;SDS011;4597;48.730;9.114;2022-11-18T16:31:05;3.33;;;2.70;;
9124;SDS011;4597;48.730;9.114;2022-11-18T16:33:50;4.27;;;2.60;;
9124;SDS011;4597;48.730;9.114;2022-11-18T16:36:15;4.40;;;2.50;;
9124;SDS011;4597;48.730;9.114;2022-11-18T16:38:41;5.47;;;3.57;;
9124;SDS011;4597;48.730;9.114;2022-11-18T16:41:07;4.07;;;2.83;;
9124;SDS011;4597;48.730;9.114;2022-11-18T16:43:53;7.27;;;3.00;;
9124;SDS011;4597;48.730;9.114;2022-11-18T16:46:18;5.60;;;3.17;;
9124;SDS011;4597;48.730;9.114;2022-11-18T16:48:44;5.70;;;3.20;;
9124;SDS011;4597;48.730;9.114;2022-11-18T16:51:20;4.27;;;2.97;;
9124;SDS011;4597;48.730;9.114;2022-11-18T16:53:55;5.67;;;3.20;;
9124;SDS011;4597;48.730;9.114;2022-11-18T16:56:25;7.40;;;3.17;;
9124;SDS011;4597;48.730;9.114;2022-11-18T16:58:56;3.73;;;3.20;;
9124;SDS011;4597;48.730;9.114;2022-11-18T17:01:26;5.43;;;4.00;;
9124;SDS011;4597;48.730;9.114;2022-11-18T17:03:52;6.33;;;4.40;;
9124;SDS011;4597;48.730;9.114;2022-11-18T17:06:19;10.87;;;5.10;;
9124;SDS011;4597;48.730;9.114;2022-11-18T17:08:45;4.70;;;4.20;;
9124;SDS011;4597;48.730;9.114;2022-11-18T17:11:11;6.10;;;4.57;;